sensor_id;sensor_type;location;lat;lon;timestamp;P1;durP1;ratioP1;P2;durP2;ratioP2
28774;SDS011;15926;51.348;6.596;2024-03-02T00:00:18;1.23;;;1.13;;
28774;SDS011;15926;51.348;6.596;2024-03-02T00:02:46;1.20;;;0.95;;
28774;SDS011;15926;51.348;6.596;2024-03-02T00:05:13;2.58;;;0.90;;
28774;SDS011;15926;51.348;6.596;2024-03-02T00:07:41;3.00;;;1.30;;
28774;SDS011;15926;51.348;6.596;2024-03-02T00:10:08;1.10;;;0.80;;
28774;SDS011;15926;51.348;6.596;2024-03-02T00:12:40;1.77;;;0.90;;
28774;SDS011;15926;51.348;6.596;2024-03-02T00:15:21;0.75;;;0.68;;
28774;SDS011;15926;51.348;6.596;2024-03-02T00:17:55;2.15;;;0.77;;
28774;SDS011;15926;51.348;6.596;2024-03-02T00:22:49;4.00;;;0.75;;
28774;SDS011;15926;51.348;6.596;2024-03-02T00:25:15;2.42;;;0.90;;
28774;SDS011;15926;51.348;6.596;2024-03-02T00:27:41;3.65;;;0.80;;
28774;SDS011;15926;51.348;6.596;2024-03-02T00:32:52;1.38;;;0.88;;
28774;SDS011;15926;51.348;6.596;2024-03-02T00:35:18;0.85;;;0.70;;
28774;SDS011;15926;51.348;6.596;2024-03-02T00:37:45;1.52;;;0.88;;
28774;SDS011;15926;51.348;6.596;2024-03-02T00:40:11;1.05;;;0.80;;
28774;SDS011;15926;51.348;6.596;2024-03-02T00:42:39;1.27;;;1.00;;
28774;SDS011;15926;51.348;6.596;2024-03-02T00:45:08;1.80;;;0.77;;
28774;SDS011;15926;51.348;6.596;2024-03-02T00:47:40;1.38;;;0.75;;
28774;SDS011;15926;51.348;6.596;2024-03-02T00:50:07;2.65;;;1.08;;
28774;SDS011;15926;51.348;6.596;2024-03-02T00:52:33;1.20;;;0.90;;
28774;SDS011;15926;51.348;6.596;2024-03-02T00:54:59;0.68;;;0.65;;
28774;SDS011;15926;51.348;6.596;2024-03-02T00:57:25;0.75;;;0.60;;
28774;SDS011;15926;51.348;6.596;2024-03-02T00:59:52;1.73;;;0.98;;
28774;SDS011;15926;51.348;6.596;2024-03-02T01:02:18;3.35;;;0.90;;
28774;SDS011;15926;51.348;6.596;2024-03-02T01:04:45;1.60;;;0.80;;
28774;SDS011;15926;51.348;6.596;2024-03-02T01:07:11;0.98;;;0.63;;
28774;SDS011;15926;51.348;6.596;2024-03-02T01:09:37;2.67;;;0.88;;
28774;SDS011;15926;51.348;6.596;2024-03-02T01:12:03;0.95;;;0.80;;
28774;SDS011;15926;51.348;6.596;2024-03-02T01:14:29;1.77;;;0.63;;
28774;SDS011;15926;51.348;6.596;2024-03-02T01:16:55;0.95;;;0.80;;
28774;SDS011;15926;51.348;6.596;2024-03-02T01:19:21;3.28;;;0.90;;
28774;SDS011;15926;51.348;6.596;2024-03-02T01:21:47;1.15;;;0.80;;
28774;SDS011;15926;51.348;6.596;2024-03-02T01:24:15;1.02;;;0.90;;
28774;SDS011;15926;51.348;6.596;2024-03-02T01:26:42;1.70;;;0.80;;
28774;SDS011;15926;51.348;6.596;2024-03-02T01:29:07;1.63;;;0.70;;
28774;SDS011;15926;51.348;6.596;2024-03-02T01:31:34;0.80;;;0.70;;
28774;SDS011;15926;51.348;6.596;2024-03-02T01:33:59;0.73;;;0.68;;
28774;SDS011;15926;51.348;6.596;2024-03-02T01:36:26;2.75;;;0.90;;
28774;SDS011;15926;51.348;6.596;2024-03-02T01:38:52;0.95;;;0.73;;
28774;SDS011;15926;51.348;6.596;2024-03-02T01:41:18;0.73;;;0.73;;
28774;SDS011;15926;51.348;6.596;2024-03-02T01:43:44;1.85;;;0.90;;
28774;SDS011;15926;51.348;6.596;2024-03-02T01:46:10;0.70;;;0.70;;
28774;SDS011;15926;51.348;6.596;2024-03-02T01:48:36;3.55;;;0.90;;
28774;SDS011;15926;51.348;6.596;2024-03-02T01:51:02;2.25;;;1.00;;
28774;SDS011;15926;51.348;6.596;2024-03-02T01:53:29;1.48;;;0.68;;
28774;SDS011;15926;51.348;6.596;2024-03-02T01:55:55;0.75;;;0.70;;
28774;SDS011;15926;51.348;6.596;2024-03-02T01:58:21;0.82;;;0.60;;
28774;SDS011;15926;51.348;6.596;2024-03-02T02:00:47;1.10;;;0.70;;
28774;SDS011;15926;51.348;6.596;2024-03-02T02:03:13;1.38;;;0.90;;
28774;SDS011;15926;51.348;6.596;2024-03-02T02:05:39;1.88;;;0.90;;
28774;SDS011;15926;51.348;6.596;2024-03-02T02:08:05;1.98;;;0.65;;
28774;SDS011;15926;51.348;6.596;2024-03-02T02:10:31;1.23;;;0.88;;
28774;SDS011;15926;51.348;6.596;2024-03-02T02:12:57;1.85;;;0.82;;
28774;SDS011;15926;51.348;6.596;2024-03-02T02:15:27;0.82;;;0.82;;
28774;SDS011;15926;51.348;6.596;2024-03-02T02:17:53;1.20;;;0.80;;
28774;SDS011;15926;51.348;6.596;2024-03-02T02:20:20;1.67;;;1.10;;
28774;SDS011;15926;51.348;6.596;2024-03-02T02:25:24;0.93;;;0.80;;
28774;SDS011;15926;51.348;6.596;2024-03-02T02:27:50;0.98;;;0.80;;
28774;SDS011;15926;51.348;6.596;2024-03-02T02:30:20;1.05;;;0.95;;
28774;SDS011;15926;51.348;6.596;2024-03-02T02:32:46;2.33;;;0.98;;
28774;SDS011;15926;51.348;6.596;2024-03-02T02:35:12;1.77;;;1.27;;
28774;SDS011;15926;51.348;6.596;2024-03-02T02:37:38;0.90;;;0.73;;
28774;SDS011;15926;51.348;6.596;2024-03-02T02:40:04;1.30;;;0.88;;
28774;SDS011;15926;51.348;6.596;2024-03-02T02:42:31;1.83;;;0.90;;
28774;SDS011;15926;51.348;6.596;2024-03-02T02:44:57;2.20;;;0.93;;
28774;SDS011;15926;51.348;6.596;2024-03-02T02:47:23;1.83;;;1.05;;
28774;SDS011;15926;51.348;6.596;2024-03-02T02:49:48;2.20;;;0.90;;
28774;SDS011;15926;51.348;6.596;2024-03-02T02:52:14;1.65;;;0.90;;
28774;SDS011;15926;51.348;6.596;2024-03-02T02:54:41;1.13;;;0.77;;
28774;SDS011;15926;51.348;6.596;2024-03-02T02:57:10;2.20;;;0.95;;
28774;SDS011;15926;51.348;6.596;2024-03-02T02:59:36;2.58;;;1.00;;
28774;SDS011;15926;51.348;6.596;2024-03-02T03:02:11;0.90;;;0.82;;
28774;SDS011;15926;51.348;6.596;2024-03-02T03:04:39;1.00;;;0.90;;
28774;SDS011;15926;51.348;6.596;2024-03-02T03:07:05;1.70;;;1.35;;
28774;SDS011;15926;51.348;6.596;2024-03-02T03:09:32;3.35;;;1.08;;
28774;SDS011;15926;51.348;6.596;2024-03-02T03:11:58;1.40;;;1.10;;
28774;SDS011;15926;51.348;6.596;2024-03-02T03:14:24;1.35;;;0.75;;
28774;SDS011;15926;51.348;6.596;2024-03-02T03:16:50;3.53;;;0.90;;
28774;SDS011;15926;51.348;6.596;2024-03-02T03:19:16;1.17;;;1.08;;
28774;SDS011;15926;51.348;6.596;2024-03-02T03:21:43;3.90;;;1.20;;
28774;SDS011;15926;51.348;6.596;2024-03-02T03:24:09;1.30;;;1.08;;
28774;SDS011;15926;51.348;6.596;2024-03-02T03:26:35;1.63;;;1.02;;
28774;SDS011;15926;51.348;6.596;2024-03-02T03:29:01;2.58;;;0.93;;
28774;SDS011;15926;51.348;6.596;2024-03-02T03:31:28;1.65;;;1.00;;
28774;SDS011;15926;51.348;6.596;2024-03-02T03:33:54;2.45;;;1.35;;
28774;SDS011;15926;51.348;6.596;2024-03-02T03:36:20;1.20;;;1.05;;
28774;SDS011;15926;51.348;6.596;2024-03-02T03:38:46;1.50;;;1.17;;
28774;SDS011;15926;51.348;6.596;2024-03-02T03:41:13;1.00;;;0.77;;
28774;SDS011;15926;51.348;6.596;2024-03-02T03:43:39;1.02;;;0.90;;
28774;SDS011;15926;51.348;6.596;2024-03-02T03:46:05;2.30;;;1.05;;
28774;SDS011;15926;51.348;6.596;2024-03-02T03:48:31;2.03;;;0.68;;
28774;SDS011;15926;51.348;6.596;2024-03-02T03:50:57;3.08;;;0.50;;
28774;SDS011;15926;51.348;6.596;2024-03-02T03:53:23;1.08;;;0.60;;
28774;SDS011;15926;51.348;6.596;2024-03-02T03:55:49;1.58;;;0.60;;
28774;SDS011;15926;51.348;6.596;2024-03-02T03:58:15;1.00;;;0.60;;
28774;SDS011;15926;51.348;6.596;2024-03-02T04:00:42;1.48;;;0.57;;
28774;SDS011;15926;51.348;6.596;2024-03-02T04:03:08;2.50;;;0.60;;
28774;SDS011;15926;51.348;6.596;2024-03-02T04:05:34;1.13;;;0.63;;
28774;SDS011;15926;51.348;6.596;2024-03-02T04:08:00;3.05;;;0.50;;
28774;SDS011;15926;51.348;6.596;2024-03-02T04:10:26;0.63;;;0.50;;
28774;SDS011;15926;51.348;6.596;2024-03-02T04:12:52;0.57;;;0.40;;
28774;SDS011;15926;51.348;6.596;2024-03-02T04:15:18;0.70;;;0.70;;
28774;SDS011;15926;51.348;6.596;2024-03-02T04:17:44;1.02;;;0.50;;
28774;SDS011;15926;51.348;6.596;2024-03-02T04:20:11;2.38;;;0.50;;
28774;SDS011;15926;51.348;6.596;2024-03-02T04:22:37;0.50;;;0.50;;
28774;SDS011;15926;51.348;6.596;2024-03-02T04:25:03;0.98;;;0.60;;
28774;SDS011;15926;51.348;6.596;2024-03-02T04:27:30;3.25;;;0.75;;
28774;SDS011;15926;51.348;6.596;2024-03-02T04:29:59;1.40;;;0.55;;
28774;SDS011;15926;51.348;6.596;2024-03-02T04:32:26;2.90;;;0.43;;
28774;SDS011;15926;51.348;6.596;2024-03-02T04:34:52;0.50;;;0.50;;
28774;SDS011;15926;51.348;6.596;2024-03-02T04:37:18;1.15;;;0.60;;
28774;SDS011;15926;51.348;6.596;2024-03-02T04:39:44;0.60;;;0.60;;
28774;SDS011;15926;51.348;6.596;2024-03-02T04:42:10;0.40;;;0.40;;
28774;SDS011;15926;51.348;6.596;2024-03-02T04:44:36;0.80;;;0.60;;
28774;SDS011;15926;51.348;6.596;2024-03-02T04:47:03;2.33;;;0.90;;
28774;SDS011;15926;51.348;6.596;2024-03-02T04:49:29;0.55;;;0.55;;
28774;SDS011;15926;51.348;6.596;2024-03-02T04:51:55;1.25;;;0.60;;
28774;SDS011;15926;51.348;6.596;2024-03-02T04:54:22;0.88;;;0.70;;
28774;SDS011;15926;51.348;6.596;2024-03-02T04:56:48;3.30;;;0.80;;
28774;SDS011;15926;51.348;6.596;2024-03-02T04:59:17;1.23;;;0.65;;
28774;SDS011;15926;51.348;6.596;2024-03-02T05:01:44;0.77;;;0.60;;
28774;SDS011;15926;51.348;6.596;2024-03-02T05:04:10;1.70;;;0.60;;
28774;SDS011;15926;51.348;6.596;2024-03-02T05:06:37;3.10;;;0.80;;
28774;SDS011;15926;51.348;6.596;2024-03-02T05:09:04;1.90;;;0.63;;
28774;SDS011;15926;51.348;6.596;2024-03-02T05:11:30;1.10;;;1.00;;
28774;SDS011;15926;51.348;6.596;2024-03-02T05:14:02;0.98;;;0.95;;
28774;SDS011;15926;51.348;6.596;2024-03-02T05:16:28;0.98;;;0.90;;
28774;SDS011;15926;51.348;6.596;2024-03-02T05:18:54;2.00;;;1.20;;
28774;SDS011;15926;51.348;6.596;2024-03-02T05:21:20;1.10;;;1.00;;
28774;SDS011;15926;51.348;6.596;2024-03-02T05:23:46;0.90;;;0.90;;
28774;SDS011;15926;51.348;6.596;2024-03-02T05:26:12;1.33;;;1.00;;
28774;SDS011;15926;51.348;6.596;2024-03-02T05:28:38;1.13;;;0.93;;
28774;SDS011;15926;51.348;6.596;2024-03-02T05:31:04;1.20;;;0.90;;
28774;SDS011;15926;51.348;6.596;2024-03-02T05:33:30;1.70;;;1.15;;
28774;SDS011;15926;51.348;6.596;2024-03-02T05:35:58;2.22;;;1.02;;
28774;SDS011;15926;51.348;6.596;2024-03-02T05:38:24;1.10;;;0.80;;
28774;SDS011;15926;51.348;6.596;2024-03-02T05:40:50;2.05;;;1.15;;
28774;SDS011;15926;51.348;6.596;2024-03-02T05:43:16;2.38;;;1.15;;
28774;SDS011;15926;51.348;6.596;2024-03-02T05:45:43;1.00;;;0.80;;
28774;SDS011;15926;51.348;6.596;2024-03-02T05:48:09;1.30;;;0.80;;
28774;SDS011;15926;51.348;6.596;2024-03-02T05:50:35;0.90;;;0.90;;
28774;SDS011;15926;51.348;6.596;2024-03-02T05:53:01;1.08;;;0.85;;
28774;SDS011;15926;51.348;6.596;2024-03-02T05:55:27;6.90;;;1.20;;
28774;SDS011;15926;51.348;6.596;2024-03-02T05:57:53;2.47;;;1.17;;
28774;SDS011;15926;51.348;6.596;2024-03-02T06:00:47;2.38;;;1.30;;
28774;SDS011;15926;51.348;6.596;2024-03-02T06:03:13;1.50;;;1.20;;
28774;SDS011;15926;51.348;6.596;2024-03-02T06:05:39;1.38;;;0.88;;
28774;SDS011;15926;51.348;6.596;2024-03-02T06:08:06;2.47;;;1.02;;
28774;SDS011;15926;51.348;6.596;2024-03-02T06:10:32;1.65;;;1.10;;
28774;SDS011;15926;51.348;6.596;2024-03-02T06:12:58;2.28;;;1.15;;
28774;SDS011;15926;51.348;6.596;2024-03-02T06:15:24;1.67;;;1.05;;
28774;SDS011;15926;51.348;6.596;2024-03-02T06:17:50;3.92;;;1.55;;
28774;SDS011;15926;51.348;6.596;2024-03-02T06:20:16;2.78;;;1.17;;
28774;SDS011;15926;51.348;6.596;2024-03-02T06:22:42;2.25;;;1.15;;
28774;SDS011;15926;51.348;6.596;2024-03-02T06:25:08;2.88;;;1.10;;
28774;SDS011;15926;51.348;6.596;2024-03-02T06:27:34;2.22;;;1.20;;
28774;SDS011;15926;51.348;6.596;2024-03-02T06:30:00;2.58;;;1.20;;
28774;SDS011;15926;51.348;6.596;2024-03-02T06:32:26;1.95;;;1.42;;
28774;SDS011;15926;51.348;6.596;2024-03-02T06:34:52;2.92;;;1.20;;
28774;SDS011;15926;51.348;6.596;2024-03-02T06:37:18;4.70;;;1.08;;
28774;SDS011;15926;51.348;6.596;2024-03-02T06:39:47;2.58;;;1.15;;
28774;SDS011;15926;51.348;6.596;2024-03-02T06:42:14;1.63;;;1.17;;
28774;SDS011;15926;51.348;6.596;2024-03-02T06:44:40;2.00;;;1.30;;
28774;SDS011;15926;51.348;6.596;2024-03-02T06:47:06;1.63;;;1.27;;
28774;SDS011;15926;51.348;6.596;2024-03-02T06:49:32;2.33;;;1.20;;
28774;SDS011;15926;51.348;6.596;2024-03-02T06:52:00;2.15;;;1.20;;
28774;SDS011;15926;51.348;6.596;2024-03-02T06:54:26;4.75;;;1.33;;
28774;SDS011;15926;51.348;6.596;2024-03-02T06:56:52;4.13;;;1.17;;
28774;SDS011;15926;51.348;6.596;2024-03-02T06:59:18;2.22;;;1.38;;
28774;SDS011;15926;51.348;6.596;2024-03-02T07:01:44;3.10;;;1.33;;
28774;SDS011;15926;51.348;6.596;2024-03-02T07:04:10;2.65;;;1.65;;
28774;SDS011;15926;51.348;6.596;2024-03-02T07:06:36;2.83;;;1.92;;
28774;SDS011;15926;51.348;6.596;2024-03-02T07:09:02;4.30;;;1.80;;
28774;SDS011;15926;51.348;6.596;2024-03-02T07:11:28;1.95;;;1.60;;
28774;SDS011;15926;51.348;6.596;2024-03-02T07:13:54;3.42;;;1.27;;
28774;SDS011;15926;51.348;6.596;2024-03-02T07:16:20;2.45;;;1.58;;
28774;SDS011;15926;51.348;6.596;2024-03-02T07:18:53;1.27;;;1.17;;
28774;SDS011;15926;51.348;6.596;2024-03-02T07:21:21;3.30;;;1.40;;
28774;SDS011;15926;51.348;6.596;2024-03-02T07:23:47;1.63;;;1.48;;
28774;SDS011;15926;51.348;6.596;2024-03-02T07:26:13;1.40;;;1.30;;
28774;SDS011;15926;51.348;6.596;2024-03-02T07:28:46;6.95;;;1.50;;
28774;SDS011;15926;51.348;6.596;2024-03-02T07:31:15;2.30;;;1.90;;
28774;SDS011;15926;51.348;6.596;2024-03-02T07:33:43;2.45;;;1.58;;
28774;SDS011;15926;51.348;6.596;2024-03-02T07:36:09;4.68;;;1.45;;
28774;SDS011;15926;51.348;6.596;2024-03-02T07:38:35;3.47;;;1.52;;
28774;SDS011;15926;51.348;6.596;2024-03-02T07:41:01;2.67;;;1.30;;
28774;SDS011;15926;51.348;6.596;2024-03-02T07:43:29;2.72;;;1.75;;
28774;SDS011;15926;51.348;6.596;2024-03-02T07:45:58;3.30;;;1.40;;
28774;SDS011;15926;51.348;6.596;2024-03-02T07:48:24;1.85;;;1.50;;
28774;SDS011;15926;51.348;6.596;2024-03-02T07:50:50;2.58;;;1.45;;
28774;SDS011;15926;51.348;6.596;2024-03-02T07:53:16;1.60;;;1.50;;
28774;SDS011;15926;51.348;6.596;2024-03-02T07:55:42;1.90;;;1.05;;
28774;SDS011;15926;51.348;6.596;2024-03-02T07:58:08;3.05;;;1.60;;
28774;SDS011;15926;51.348;6.596;2024-03-02T08:00:34;2.45;;;1.30;;
28774;SDS011;15926;51.348;6.596;2024-03-02T08:03:00;1.48;;;1.25;;
28774;SDS011;15926;51.348;6.596;2024-03-02T08:05:26;7.13;;;1.75;;
28774;SDS011;15926;51.348;6.596;2024-03-02T08:07:52;8.05;;;2.00;;
28774;SDS011;15926;51.348;6.596;2024-03-02T08:10:19;3.08;;;1.45;;
28774;SDS011;15926;51.348;6.596;2024-03-02T08:12:45;4.00;;;1.45;;
28774;SDS011;15926;51.348;6.596;2024-03-02T08:15:11;3.40;;;1.45;;
28774;SDS011;15926;51.348;6.596;2024-03-02T08:17:38;2.72;;;1.25;;
28774;SDS011;15926;51.348;6.596;2024-03-02T08:20:09;1.05;;;0.95;;
28774;SDS011;15926;51.348;6.596;2024-03-02T08:22:35;3.33;;;1.20;;
28774;SDS011;15926;51.348;6.596;2024-03-02T08:25:01;1.23;;;1.13;;
28774;SDS011;15926;51.348;6.596;2024-03-02T08:27:27;3.40;;;1.33;;
28774;SDS011;15926;51.348;6.596;2024-03-02T08:29:53;1.20;;;1.10;;
28774;SDS011;15926;51.348;6.596;2024-03-02T08:32:19;1.40;;;1.17;;
28774;SDS011;15926;51.348;6.596;2024-03-02T08:34:46;4.63;;;1.58;;
28774;SDS011;15926;51.348;6.596;2024-03-02T08:37:12;1.63;;;1.20;;
28774;SDS011;15926;51.348;6.596;2024-03-02T08:39:38;1.20;;;1.10;;
28774;SDS011;15926;51.348;6.596;2024-03-02T08:42:04;1.67;;;1.30;;
28774;SDS011;15926;51.348;6.596;2024-03-02T08:44:30;3.05;;;1.00;;
28774;SDS011;15926;51.348;6.596;2024-03-02T08:46:56;2.50;;;1.27;;
28774;SDS011;15926;51.348;6.596;2024-03-02T08:49:22;2.85;;;1.58;;
28774;SDS011;15926;51.348;6.596;2024-03-02T08:51:48;2.15;;;1.25;;
28774;SDS011;15926;51.348;6.596;2024-03-02T08:54:20;1.90;;;1.10;;
28774;SDS011;15926;51.348;6.596;2024-03-02T08:56:46;1.20;;;1.00;;
28774;SDS011;15926;51.348;6.596;2024-03-02T08:59:12;2.15;;;1.17;;
28774;SDS011;15926;51.348;6.596;2024-03-02T09:01:38;2.63;;;1.00;;
28774;SDS011;15926;51.348;6.596;2024-03-02T09:04:06;2.40;;;1.08;;
28774;SDS011;15926;51.348;6.596;2024-03-02T09:06:33;1.48;;;0.93;;
28774;SDS011;15926;51.348;6.596;2024-03-02T09:08:59;1.13;;;0.82;;
28774;SDS011;15926;51.348;6.596;2024-03-02T09:11:26;1.00;;;0.85;;
28774;SDS011;15926;51.348;6.596;2024-03-02T09:13:52;0.73;;;0.73;;
28774;SDS011;15926;51.348;6.596;2024-03-02T09:16:19;6.57;;;1.42;;
28774;SDS011;15926;51.348;6.596;2024-03-02T09:18:45;3.17;;;0.88;;
28774;SDS011;15926;51.348;6.596;2024-03-02T09:21:12;0.77;;;0.77;;
28774;SDS011;15926;51.348;6.596;2024-03-02T09:23:38;1.25;;;1.02;;
28774;SDS011;15926;51.348;6.596;2024-03-02T09:26:05;1.42;;;0.70;;
28774;SDS011;15926;51.348;6.596;2024-03-02T09:28:31;1.98;;;0.80;;
28774;SDS011;15926;51.348;6.596;2024-03-02T09:30:57;0.80;;;0.80;;
28774;SDS011;15926;51.348;6.596;2024-03-02T09:33:23;1.52;;;0.60;;
28774;SDS011;15926;51.348;6.596;2024-03-02T09:35:49;2.42;;;0.75;;
28774;SDS011;15926;51.348;6.596;2024-03-02T09:38:15;1.23;;;0.80;;
28774;SDS011;15926;51.348;6.596;2024-03-02T09:40:41;1.92;;;0.80;;
28774;SDS011;15926;51.348;6.596;2024-03-02T09:43:08;0.93;;;0.70;;
28774;SDS011;15926;51.348;6.596;2024-03-02T09:45:34;3.63;;;0.90;;
28774;SDS011;15926;51.348;6.596;2024-03-02T09:48:00;3.08;;;0.60;;
28774;SDS011;15926;51.348;6.596;2024-03-02T09:50:26;0.60;;;0.60;;
28774;SDS011;15926;51.348;6.596;2024-03-02T09:52:52;1.25;;;0.70;;
28774;SDS011;15926;51.348;6.596;2024-03-02T09:55:19;2.20;;;0.68;;
28774;SDS011;15926;51.348;6.596;2024-03-02T09:57:46;1.05;;;0.60;;
28774;SDS011;15926;51.348;6.596;2024-03-02T10:00:13;0.70;;;0.60;;
28774;SDS011;15926;51.348;6.596;2024-03-02T10:02:43;0.70;;;0.50;;
28774;SDS011;15926;51.348;6.596;2024-03-02T10:05:09;0.60;;;0.60;;
28774;SDS011;15926;51.348;6.596;2024-03-02T10:07:36;1.75;;;0.90;;
28774;SDS011;15926;51.348;6.596;2024-03-02T10:10:12;1.30;;;0.57;;
28774;SDS011;15926;51.348;6.596;2024-03-02T10:12:39;0.50;;;0.40;;
28774;SDS011;15926;51.348;6.596;2024-03-02T10:15:05;2.00;;;0.70;;
28774;SDS011;15926;51.348;6.596;2024-03-02T10:17:32;3.15;;;0.68;;
28774;SDS011;15926;51.348;6.596;2024-03-02T10:19:58;1.75;;;0.60;;
28774;SDS011;15926;51.348;6.596;2024-03-02T10:22:24;0.93;;;0.50;;
28774;SDS011;15926;51.348;6.596;2024-03-02T10:24:51;1.20;;;0.93;;
28774;SDS011;15926;51.348;6.596;2024-03-02T10:27:19;1.15;;;0.45;;
28774;SDS011;15926;51.348;6.596;2024-03-02T10:29:48;1.80;;;0.50;;
28774;SDS011;15926;51.348;6.596;2024-03-02T10:32:14;1.60;;;0.47;;
28774;SDS011;15926;51.348;6.596;2024-03-02T10:34:41;2.55;;;0.50;;
28774;SDS011;15926;51.348;6.596;2024-03-02T10:37:07;1.27;;;0.63;;
28774;SDS011;15926;51.348;6.596;2024-03-02T10:39:37;1.35;;;0.57;;
28774;SDS011;15926;51.348;6.596;2024-03-02T10:42:05;1.27;;;0.60;;
28774;SDS011;15926;51.348;6.596;2024-03-02T10:44:32;0.43;;;0.35;;
28774;SDS011;15926;51.348;6.596;2024-03-02T10:47:02;0.95;;;0.63;;
28774;SDS011;15926;51.348;6.596;2024-03-02T10:49:29;6.10;;;0.77;;
28774;SDS011;15926;51.348;6.596;2024-03-02T10:51:56;1.35;;;0.40;;
28774;SDS011;15926;51.348;6.596;2024-03-02T10:54:22;4.10;;;0.50;;
28774;SDS011;15926;51.348;6.596;2024-03-02T10:56:51;1.80;;;0.50;;
28774;SDS011;15926;51.348;6.596;2024-03-02T11:01:50;2.00;;;0.50;;
28774;SDS011;15926;51.348;6.596;2024-03-02T11:04:18;2.10;;;0.80;;
28774;SDS011;15926;51.348;6.596;2024-03-02T11:06:50;1.73;;;0.63;;
28774;SDS011;15926;51.348;6.596;2024-03-02T11:09:20;3.42;;;0.60;;
28774;SDS011;15926;51.348;6.596;2024-03-02T11:11:49;1.92;;;0.75;;
28774;SDS011;15926;51.348;6.596;2024-03-02T11:14:18;1.83;;;0.65;;
28774;SDS011;15926;51.348;6.596;2024-03-02T11:16:46;2.50;;;0.80;;
28774;SDS011;15926;51.348;6.596;2024-03-02T11:19:13;0.90;;;0.90;;
28774;SDS011;15926;51.348;6.596;2024-03-02T11:21:39;1.45;;;0.80;;
28774;SDS011;15926;51.348;6.596;2024-03-02T11:26:48;1.17;;;0.70;;
28774;SDS011;15926;51.348;6.596;2024-03-02T11:34:41;2.55;;;1.38;;
28774;SDS011;15926;51.348;6.596;2024-03-02T11:37:20;2.75;;;0.55;;
28774;SDS011;15926;51.348;6.596;2024-03-02T11:39:46;1.42;;;0.52;;
28774;SDS011;15926;51.348;6.596;2024-03-02T11:42:13;0.98;;;0.60;;
28774;SDS011;15926;51.348;6.596;2024-03-02T11:44:39;1.42;;;0.50;;
28774;SDS011;15926;51.348;6.596;2024-03-02T11:47:06;1.20;;;0.60;;
28774;SDS011;15926;51.348;6.596;2024-03-02T11:49:42;1.80;;;0.75;;
28774;SDS011;15926;51.348;6.596;2024-03-02T11:52:10;2.35;;;0.80;;
28774;SDS011;15926;51.348;6.596;2024-03-02T11:54:40;1.52;;;0.55;;
28774;SDS011;15926;51.348;6.596;2024-03-02T11:57:11;0.40;;;0.40;;
28774;SDS011;15926;51.348;6.596;2024-03-02T11:59:37;1.85;;;0.68;;
28774;SDS011;15926;51.348;6.596;2024-03-02T12:02:04;0.77;;;0.50;;
28774;SDS011;15926;51.348;6.596;2024-03-02T12:04:30;1.15;;;0.40;;
28774;SDS011;15926;51.348;6.596;2024-03-02T12:06:57;0.93;;;0.50;;
28774;SDS011;15926;51.348;6.596;2024-03-02T12:09:24;1.87;;;0.60;;
28774;SDS011;15926;51.348;6.596;2024-03-02T12:12:01;1.77;;;0.52;;
28774;SDS011;15926;51.348;6.596;2024-03-02T12:14:27;1.23;;;0.60;;
28774;SDS011;15926;51.348;6.596;2024-03-02T12:16:54;1.15;;;0.70;;
28774;SDS011;15926;51.348;6.596;2024-03-02T12:19:21;0.73;;;0.50;;
28774;SDS011;15926;51.348;6.596;2024-03-02T12:21:47;1.25;;;0.52;;
28774;SDS011;15926;51.348;6.596;2024-03-02T12:24:13;1.45;;;0.50;;
28774;SDS011;15926;51.348;6.596;2024-03-02T12:26:39;1.60;;;0.80;;
28774;SDS011;15926;51.348;6.596;2024-03-02T12:29:06;0.85;;;0.50;;
28774;SDS011;15926;51.348;6.596;2024-03-02T12:31:32;1.92;;;0.55;;
28774;SDS011;15926;51.348;6.596;2024-03-02T12:33:58;3.53;;;0.57;;
28774;SDS011;15926;51.348;6.596;2024-03-02T12:36:24;1.67;;;0.70;;
28774;SDS011;15926;51.348;6.596;2024-03-02T12:38:53;2.13;;;0.57;;
28774;SDS011;15926;51.348;6.596;2024-03-02T12:41:19;0.80;;;0.60;;
28774;SDS011;15926;51.348;6.596;2024-03-02T12:43:45;0.57;;;0.50;;
28774;SDS011;15926;51.348;6.596;2024-03-02T12:46:12;3.47;;;1.33;;
28774;SDS011;15926;51.348;6.596;2024-03-02T12:48:38;2.63;;;0.77;;
28774;SDS011;15926;51.348;6.596;2024-03-02T12:53:33;2.75;;;0.50;;
28774;SDS011;15926;51.348;6.596;2024-03-02T12:55:59;0.80;;;0.60;;
28774;SDS011;15926;51.348;6.596;2024-03-02T12:58:25;1.60;;;0.60;;
28774;SDS011;15926;51.348;6.596;2024-03-02T13:01:05;0.57;;;0.55;;
28774;SDS011;15926;51.348;6.596;2024-03-02T13:03:34;1.65;;;0.70;;
28774;SDS011;15926;51.348;6.596;2024-03-02T13:06:00;1.40;;;0.50;;
28774;SDS011;15926;51.348;6.596;2024-03-02T13:08:26;0.80;;;0.70;;
28774;SDS011;15926;51.348;6.596;2024-03-02T13:10:52;2.05;;;0.73;;
28774;SDS011;15926;51.348;6.596;2024-03-02T13:13:18;1.02;;;0.50;;
28774;SDS011;15926;51.348;6.596;2024-03-02T13:15:44;1.38;;;0.60;;
28774;SDS011;15926;51.348;6.596;2024-03-02T13:18:11;1.35;;;0.60;;
28774;SDS011;15926;51.348;6.596;2024-03-02T13:20:37;0.77;;;0.60;;
28774;SDS011;15926;51.348;6.596;2024-03-02T13:23:04;3.28;;;0.63;;
28774;SDS011;15926;51.348;6.596;2024-03-02T13:25:30;0.90;;;0.80;;
28774;SDS011;15926;51.348;6.596;2024-03-02T13:27:57;2.35;;;0.80;;
28774;SDS011;15926;51.348;6.596;2024-03-02T13:30:23;2.17;;;0.60;;
28774;SDS011;15926;51.348;6.596;2024-03-02T13:32:49;0.80;;;0.55;;
28774;SDS011;15926;51.348;6.596;2024-03-02T13:35:15;0.73;;;0.73;;
28774;SDS011;15926;51.348;6.596;2024-03-02T13:37:41;0.52;;;0.52;;
28774;SDS011;15926;51.348;6.596;2024-03-02T13:40:07;0.80;;;0.77;;
28774;SDS011;15926;51.348;6.596;2024-03-02T13:42:38;2.03;;;0.80;;
28774;SDS011;15926;51.348;6.596;2024-03-02T13:45:04;1.65;;;0.73;;
28774;SDS011;15926;51.348;6.596;2024-03-02T13:47:31;0.60;;;0.60;;
28774;SDS011;15926;51.348;6.596;2024-03-02T13:49:57;2.97;;;0.80;;
28774;SDS011;15926;51.348;6.596;2024-03-02T13:52:23;1.00;;;0.82;;
28774;SDS011;15926;51.348;6.596;2024-03-02T13:54:50;2.88;;;0.80;;
28774;SDS011;15926;51.348;6.596;2024-03-02T13:59:45;0.80;;;0.80;;
28774;SDS011;15926;51.348;6.596;2024-03-02T14:02:12;1.10;;;0.70;;
28774;SDS011;15926;51.348;6.596;2024-03-02T14:04:38;1.27;;;0.80;;
28774;SDS011;15926;51.348;6.596;2024-03-02T14:07:04;0.80;;;0.80;;
28774;SDS011;15926;51.348;6.596;2024-03-02T14:09:32;1.00;;;0.70;;
28774;SDS011;15926;51.348;6.596;2024-03-02T14:11:58;0.85;;;0.70;;
28774;SDS011;15926;51.348;6.596;2024-03-02T14:16:56;2.60;;;0.70;;
28774;SDS011;15926;51.348;6.596;2024-03-02T14:19:29;4.32;;;0.80;;
28774;SDS011;15926;51.348;6.596;2024-03-02T14:21:55;2.05;;;0.80;;
28774;SDS011;15926;51.348;6.596;2024-03-02T14:24:21;0.55;;;0.55;;
28774;SDS011;15926;51.348;6.596;2024-03-02T14:26:51;0.80;;;0.75;;
28774;SDS011;15926;51.348;6.596;2024-03-02T14:29:18;0.88;;;0.70;;
28774;SDS011;15926;51.348;6.596;2024-03-02T14:31:44;0.52;;;0.52;;
28774;SDS011;15926;51.348;6.596;2024-03-02T14:34:13;3.40;;;0.90;;
28774;SDS011;15926;51.348;6.596;2024-03-02T14:36:39;1.80;;;0.95;;
28774;SDS011;15926;51.348;6.596;2024-03-02T14:39:06;1.08;;;0.80;;
28774;SDS011;15926;51.348;6.596;2024-03-02T14:41:35;1.63;;;0.70;;
28774;SDS011;15926;51.348;6.596;2024-03-02T14:44:01;2.65;;;0.90;;
28774;SDS011;15926;51.348;6.596;2024-03-02T14:46:27;0.80;;;0.80;;
28774;SDS011;15926;51.348;6.596;2024-03-02T14:48:53;3.30;;;0.63;;
28774;SDS011;15926;51.348;6.596;2024-03-02T14:51:19;1.30;;;0.80;;
28774;SDS011;15926;51.348;6.596;2024-03-02T14:53:45;1.15;;;0.80;;
28774;SDS011;15926;51.348;6.596;2024-03-02T14:56:11;1.38;;;0.70;;
28774;SDS011;15926;51.348;6.596;2024-03-02T14:58:38;0.88;;;0.82;;
28774;SDS011;15926;51.348;6.596;2024-03-02T15:01:04;0.93;;;0.70;;
28774;SDS011;15926;51.348;6.596;2024-03-02T15:03:31;0.70;;;0.70;;
28774;SDS011;15926;51.348;6.596;2024-03-02T15:05:57;1.10;;;0.68;;
28774;SDS011;15926;51.348;6.596;2024-03-02T15:08:23;1.13;;;0.60;;
28774;SDS011;15926;51.348;6.596;2024-03-02T15:10:49;0.95;;;0.70;;